sensor_id;sensor_type;location;lat;lon;timestamp;pressure;altitude;pressure_sealevel;temperature;humidity
31044;BME280;17710;52.520;13.352;2023-09-07T00:00:29;102042.22;;;24.26;58.01
31044;BME280;17710;52.520;13.352;2023-09-07T00:02:56;102048.94;;;24.07;58.49
31044;BME280;17710;52.520;13.352;2023-09-07T00:05:22;102049.00;;;24.18;58.22
31044;BME280;17710;52.520;13.352;2023-09-07T00:07:49;102052.50;;;24.20;58.82
31044;BME280;17710;52.520;13.352;2023-09-07T00:10:20;102047.38;;;24.16;58.54
31044;BME280;17710;52.520;13.352;2023-09-07T00:12:47;102054.63;;;24.03;59.37
31044;BME280;17710;52.520;13.352;2023-09-07T00:15:14;102056.34;;;24.16;59.07
31044;BME280;17710;52.520;13.352;2023-09-07T00:17:41;102058.34;;;24.02;59.51
31044;BME280;17710;52.520;13.352;2023-09-07T00:20:08;102050.69;;;23.96;59.31
31044;BME280;17710;52.520;13.352;2023-09-07T00:22:42;102053.78;;;23.90;59.65
31044;BME280;17710;52.520;13.352;2023-09-07T00:25:09;102055.94;;;23.97;59.68
31044;BME280;17710;52.520;13.352;2023-09-07T00:27:36;102052.91;;;24.14;58.89
31044;BME280;17710;52.520;13.352;2023-09-07T00:30:03;102056.94;;;24.09;58.88
31044;BME280;17710;52.520;13.352;2023-09-07T00:32:32;102051.84;;;23.79;60.35
31044;BME280;17710;52.520;13.352;2023-09-07T00:34:58;102053.56;;;24.05;59.61
31044;BME280;17710;52.520;13.352;2023-09-07T00:37:25;102050.34;;;24.00;59.80
31044;BME280;17710;52.520;13.352;2023-09-07T00:39:51;102051.09;;;23.77;60.31
31044;BME280;17710;52.520;13.352;2023-09-07T00:42:18;102043.66;;;23.80;60.39
31044;BME280;17710;52.520;13.352;2023-09-07T00:44:46;102057.34;;;23.77;60.94
31044;BME280;17710;52.520;13.352;2023-09-07T00:47:13;102052.28;;;23.73;61.00
31044;BME280;17710;52.520;13.352;2023-09-07T00:49:40;102056.19;;;23.69;61.15
31044;BME280;17710;52.520;13.352;2023-09-07T00:52:07;102054.09;;;23.47;62.17
31044;BME280;17710;52.520;13.352;2023-09-07T00:54:34;102057.44;;;23.51;62.67
31044;BME280;17710;52.520;13.352;2023-09-07T00:57:02;102054.44;;;23.55;62.28
31044;BME280;17710;52.520;13.352;2023-09-07T00:59:28;102054.00;;;23.49;62.30
31044;BME280;17710;52.520;13.352;2023-09-07T01:01:56;102047.25;;;23.41;62.49
31044;BME280;17710;52.520;13.352;2023-09-07T01:04:23;102041.94;;;23.67;61.88
31044;BME280;17710;52.520;13.352;2023-09-07T01:06:54;102045.59;;;23.66;61.94
31044;BME280;17710;52.520;13.352;2023-09-07T01:09:26;102042.59;;;23.43;62.78
31044;BME280;17710;52.520;13.352;2023-09-07T01:11:54;102046.34;;;23.68;62.10
31044;BME280;17710;52.520;13.352;2023-09-07T01:14:20;102047.94;;;23.58;61.91
31044;BME280;17710;52.520;13.352;2023-09-07T01:16:48;102041.81;;;23.56;62.33
31044;BME280;17710;52.520;13.352;2023-09-07T01:19:16;102047.94;;;23.70;61.73
31044;BME280;17710;52.520;13.352;2023-09-07T01:21:44;102043.66;;;23.68;61.92
31044;BME280;17710;52.520;13.352;2023-09-07T01:24:13;102045.16;;;23.72;61.42
31044;BME280;17710;52.520;13.352;2023-09-07T01:26:40;102037.81;;;23.74;61.18
31044;BME280;17710;52.520;13.352;2023-09-07T01:29:08;102045.06;;;23.61;61.74
31044;BME280;17710;52.520;13.352;2023-09-07T01:31:35;102045.50;;;23.80;60.66
31044;BME280;17710;52.520;13.352;2023-09-07T01:34:03;102043.00;;;23.77;60.65
31044;BME280;17710;52.520;13.352;2023-09-07T01:36:29;102046.66;;;23.51;61.58
31044;BME280;17710;52.520;13.352;2023-09-07T01:38:57;102046.16;;;23.44;62.92
31044;BME280;17710;52.520;13.352;2023-09-07T01:41:24;102043.94;;;23.51;63.17
31044;BME280;17710;52.520;13.352;2023-09-07T01:43:51;102038.84;;;23.33;63.97
31044;BME280;17710;52.520;13.352;2023-09-07T01:46:17;102042.56;;;23.58;63.06
31044;BME280;17710;52.520;13.352;2023-09-07T01:48:43;102045.44;;;23.42;63.50
31044;BME280;17710;52.520;13.352;2023-09-07T01:51:10;102045.09;;;23.47;63.49
31044;BME280;17710;52.520;13.352;2023-09-07T01:53:36;102040.38;;;23.50;63.21
31044;BME280;17710;52.520;13.352;2023-09-07T01:56:04;102040.72;;;23.19;64.54
31044;BME280;17710;52.520;13.352;2023-09-07T01:58:30;102043.94;;;23.11;64.54
31044;BME280;17710;52.520;13.352;2023-09-07T02:00:57;102045.91;;;23.09;65.10
31044;BME280;17710;52.520;13.352;2023-09-07T02:03:24;102045.22;;;23.05;65.45
31044;BME280;17710;52.520;13.352;2023-09-07T02:05:52;102044.06;;;23.10;65.20
31044;BME280;17710;52.520;13.352;2023-09-07T02:08:18;102038.56;;;23.11;65.12
31044;BME280;17710;52.520;13.352;2023-09-07T02:10:45;102034.66;;;23.02;65.42
31044;BME280;17710;52.520;13.352;2023-09-07T02:13:12;102044.03;;;22.97;65.07
31044;BME280;17710;52.520;13.352;2023-09-07T02:15:39;102039.84;;;23.05;64.92
31044;BME280;17710;52.520;13.352;2023-09-07T02:18:06;102041.81;;;23.16;64.10
31044;BME280;17710;52.520;13.352;2023-09-07T02:20:33;102044.38;;;23.18;64.38
31044;BME280;17710;52.520;13.352;2023-09-07T02:22:59;102041.59;;;23.19;64.29
31044;BME280;17710;52.520;13.352;2023-09-07T02:25:26;102032.25;;;22.98;64.95
31044;BME280;17710;52.520;13.352;2023-09-07T02:27:53;102036.19;;;23.07;64.51
31044;BME280;17710;52.520;13.352;2023-09-07T02:30:21;102040.50;;;23.09;64.61
31044;BME280;17710;52.520;13.352;2023-09-07T02:32:47;102038.53;;;22.98;64.74
31044;BME280;17710;52.520;13.352;2023-09-07T02:35:14;102037.41;;;22.88;65.19
31044;BME280;17710;52.520;13.352;2023-09-07T02:37:40;102034.94;;;22.98;64.83
31044;BME280;17710;52.520;13.352;2023-09-07T02:40:07;102027.06;;;22.82;65.51
31044;BME280;17710;52.520;13.352;2023-09-07T02:42:34;102037.16;;;22.79;65.54
31044;BME280;17710;52.520;13.352;2023-09-07T02:45:01;102041.50;;;22.67;66.68
31044;BME280;17710;52.520;13.352;2023-09-07T02:47:29;102035.53;;;22.76;66.23
31044;BME280;17710;52.520;13.352;2023-09-07T02:49:55;102036.66;;;22.86;65.89
31044;BME280;17710;52.520;13.352;2023-09-07T02:52:22;102046.78;;;22.83;66.03
31044;BME280;17710;52.520;13.352;2023-09-07T02:54:48;102042.53;;;22.79;66.04
31044;BME280;17710;52.520;13.352;2023-09-07T02:57:15;102046.31;;;22.76;65.86
31044;BME280;17710;52.520;13.352;2023-09-07T02:59:41;102050.34;;;22.69;66.38
31044;BME280;17710;52.520;13.352;2023-09-07T03:02:06;102050.06;;;22.74;66.14
31044;BME280;17710;52.520;13.352;2023-09-07T03:04:34;102045.69;;;22.85;65.81
31044;BME280;17710;52.520;13.352;2023-09-07T03:07:00;102031.47;;;22.83;65.78
31044;BME280;17710;52.520;13.352;2023-09-07T03:09:27;102040.94;;;22.76;66.34
31044;BME280;17710;52.520;13.352;2023-09-07T03:11:53;102044.22;;;22.53;67.41
31044;BME280;17710;52.520;13.352;2023-09-07T03:14:20;102046.41;;;22.60;66.42
31044;BME280;17710;52.520;13.352;2023-09-07T03:16:46;102045.25;;;22.64;66.55
31044;BME280;17710;52.520;13.352;2023-09-07T03:19:15;102051.16;;;22.57;66.66
31044;BME280;17710;52.520;13.352;2023-09-07T03:21:43;102047.31;;;22.47;67.17
31044;BME280;17710;52.520;13.352;2023-09-07T03:24:09;102050.38;;;22.55;66.73
31044;BME280;17710;52.520;13.352;2023-09-07T03:26:36;102046.66;;;22.43;66.69
31044;BME280;17710;52.520;13.352;2023-09-07T03:29:02;102047.75;;;22.67;65.34
31044;BME280;17710;52.520;13.352;2023-09-07T03:31:28;102044.81;;;22.85;64.55
31044;BME280;17710;52.520;13.352;2023-09-07T03:33:55;102044.31;;;22.51;65.56
31044;BME280;17710;52.520;13.352;2023-09-07T03:36:21;102049.25;;;22.72;64.72
31044;BME280;17710;52.520;13.352;2023-09-07T03:38:50;102043.50;;;22.78;64.49
31044;BME280;17710;52.520;13.352;2023-09-07T03:41:16;102045.88;;;22.41;66.31
31044;BME280;17710;52.520;13.352;2023-09-07T03:43:42;102048.88;;;22.51;66.09
31044;BME280;17710;52.520;13.352;2023-09-07T03:46:09;102046.66;;;22.43;66.51
31044;BME280;17710;52.520;13.352;2023-09-07T03:48:36;102050.88;;;22.47;66.25
31044;BME280;17710;52.520;13.352;2023-09-07T03:51:07;102052.69;;;22.47;66.16
31044;BME280;17710;52.520;13.352;2023-09-07T03:53:33;102053.03;;;22.28;66.92
31044;BME280;17710;52.520;13.352;2023-09-07T03:56:02;102051.50;;;22.24;67.24
31044;BME280;17710;52.520;13.352;2023-09-07T03:58:29;102057.75;;;22.24;66.80
31044;BME280;17710;52.520;13.352;2023-09-07T04:00:58;102052.56;;;22.21;66.94
31044;BME280;17710;52.520;13.352;2023-09-07T04:03:24;102054.75;;;22.29;66.54
31044;BME280;17710;52.520;13.352;2023-09-07T04:05:51;102062.84;;;22.29;66.47
31044;BME280;17710;52.520;13.352;2023-09-07T04:08:18;102057.47;;;22.15;66.90
31044;BME280;17710;52.520;13.352;2023-09-07T04:10:44;102061.00;;;22.30;66.24
31044;BME280;17710;52.520;13.352;2023-09-07T04:13:12;102063.13;;;21.96;67.58
31044;BME280;17710;52.520;13.352;2023-09-07T04:15:43;102061.38;;;21.95;67.54
31044;BME280;17710;52.520;13.352;2023-09-07T04:18:10;102058.91;;;22.06;66.90
31044;BME280;17710;52.520;13.352;2023-09-07T04:20:38;102064.38;;;22.19;66.36
31044;BME280;17710;52.520;13.352;2023-09-07T04:23:04;102069.41;;;22.11;66.75
31044;BME280;17710;52.520;13.352;2023-09-07T04:25:30;102066.09;;;22.34;66.06
31044;BME280;17710;52.520;13.352;2023-09-07T04:27:57;102065.13;;;22.35;65.58
31044;BME280;17710;52.520;13.352;2023-09-07T04:30:25;102066.50;;;22.14;65.79
31044;BME280;17710;52.520;13.352;2023-09-07T04:32:51;102073.31;;;22.19;65.58
31044;BME280;17710;52.520;13.352;2023-09-07T04:35:18;102076.47;;;22.26;65.33
31044;BME280;17710;52.520;13.352;2023-09-07T04:37:44;102068.88;;;22.47;64.32
31044;BME280;17710;52.520;13.352;2023-09-07T04:40:11;102072.81;;;22.41;64.46
31044;BME280;17710;52.520;13.352;2023-09-07T04:42:37;102068.13;;;22.31;64.80
31044;BME280;17710;52.520;13.352;2023-09-07T04:45:05;102075.13;;;22.47;63.57
31044;BME280;17710;52.520;13.352;2023-09-07T04:47:33;102076.38;;;22.42;63.82
31044;BME280;17710;52.520;13.352;2023-09-07T04:50:00;102072.97;;;22.52;64.03
31044;BME280;17710;52.520;13.352;2023-09-07T04:52:26;102074.53;;;22.56;63.82
31044;BME280;17710;52.520;13.352;2023-09-07T04:54:52;102079.16;;;22.54;63.74
31044;BME280;17710;52.520;13.352;2023-09-07T04:57:19;102077.19;;;22.71;62.95
31044;BME280;17710;52.520;13.352;2023-09-07T04:59:45;102075.16;;;22.88;62.29
31044;BME280;17710;52.520;13.352;2023-09-07T05:02:12;102075.06;;;22.90;61.83
31044;BME280;17710;52.520;13.352;2023-09-07T05:04:40;102082.16;;;22.91;61.92
31044;BME280;17710;52.520;13.352;2023-09-07T05:07:06;102083.63;;;22.82;61.90
31044;BME280;17710;52.520;13.352;2023-09-07T05:09:33;102089.00;;;22.96;61.22
31044;BME280;17710;52.520;13.352;2023-09-07T05:12:00;102078.03;;;23.12;60.69
31044;BME280;17710;52.520;13.352;2023-09-07T05:14:26;102088.84;;;23.25;60.00
31044;BME280;17710;52.520;13.352;2023-09-07T05:16:54;102083.91;;;23.31;59.95
31044;BME280;17710;52.520;13.352;2023-09-07T05:19:21;102082.34;;;23.41;59.00
31044;BME280;17710;52.520;13.352;2023-09-07T05:21:49;102082.19;;;23.30;59.22
31044;BME280;17710;52.520;13.352;2023-09-07T05:24:16;102094.56;;;23.20;59.50
31044;BME280;17710;52.520;13.352;2023-09-07T05:26:42;102084.56;;;23.62;58.13
31044;BME280;17710;52.520;13.352;2023-09-07T05:29:09;102091.56;;;23.64;57.58
31044;BME280;17710;52.520;13.352;2023-09-07T05:31:36;102089.63;;;23.79;57.27
31044;BME280;17710;52.520;13.352;2023-09-07T05:34:03;102091.28;;;23.94;56.74
31044;BME280;17710;52.520;13.352;2023-09-07T05:36:29;102090.19;;;24.22;55.92
31044;BME280;17710;52.520;13.352;2023-09-07T05:38:57;102087.59;;;24.08;56.10
31044;BME280;17710;52.520;13.352;2023-09-07T05:41:24;102087.81;;;23.92;56.59
31044;BME280;17710;52.520;13.352;2023-09-07T05:43:51;102094.06;;;23.93;55.99
31044;BME280;17710;52.520;13.352;2023-09-07T05:46:17;102100.44;;;24.30;55.23
31044;BME280;17710;52.520;13.352;2023-09-07T05:48:44;102103.03;;;24.31;54.78
31044;BME280;17710;52.520;13.352;2023-09-07T05:51:10;102099.97;;;24.48;54.45
31044;BME280;17710;52.520;13.352;2023-09-07T05:53:38;102104.09;;;24.29;54.96
31044;BME280;17710;52.520;13.352;2023-09-07T05:56:06;102107.13;;;24.37;54.29
31044;BME280;17710;52.520;13.352;2023-09-07T05:58:33;102097.78;;;24.66;53.26
31044;BME280;17710;52.520;13.352;2023-09-07T06:01:00;102102.28;;;24.78;53.18
31044;BME280;17710;52.520;13.352;2023-09-07T06:03:26;102102.84;;;24.71;52.52
31044;BME280;17710;52.520;13.352;2023-09-07T06:05:53;102101.63;;;24.87;51.97
31044;BME280;17710;52.520;13.352;2023-09-07T06:08:20;102098.47;;;25.17;51.75
31044;BME280;17710;52.520;13.352;2023-09-07T06:10:46;102101.28;;;25.16;51.72
31044;BME280;17710;52.520;13.352;2023-09-07T06:13:14;102106.81;;;25.14;51.36
31044;BME280;17710;52.520;13.352;2023-09-07T06:15:40;102108.47;;;25.28;51.42
31044;BME280;17710;52.520;13.352;2023-09-07T06:18:07;102100.50;;;25.61;49.22
31044;BME280;17710;52.520;13.352;2023-09-07T06:20:34;102102.50;;;25.70;48.32
31044;BME280;17710;52.520;13.352;2023-09-07T06:23:01;102102.72;;;25.67;49.32
31044;BME280;17710;52.520;13.352;2023-09-07T06:25:28;102109.19;;;26.00;47.59
31044;BME280;17710;52.520;13.352;2023-09-07T06:27:54;102108.09;;;26.13;47.20
31044;BME280;17710;52.520;13.352;2023-09-07T06:30:22;102114.13;;;26.06;47.49
31044;BME280;17710;52.520;13.352;2023-09-07T06:32:49;102107.97;;;26.15;46.76
31044;BME280;17710;52.520;13.352;2023-09-07T06:35:16;102113.44;;;26.26;45.74
31044;BME280;17710;52.520;13.352;2023-09-07T06:37:43;102107.41;;;26.34;45.07
31044;BME280;17710;52.520;13.352;2023-09-07T06:40:10;102113.94;;;26.31;45.84
31044;BME280;17710;52.520;13.352;2023-09-07T06:42:38;102111.09;;;26.33;46.00
31044;BME280;17710;52.520;13.352;2023-09-07T06:45:06;102105.75;;;26.76;44.04
31044;BME280;17710;52.520;13.352;2023-09-07T06:47:34;102109.09;;;26.90;43.72
31044;BME280;17710;52.520;13.352;2023-09-07T06:50:01;102114.94;;;27.07;43.11
31044;BME280;17710;52.520;13.352;2023-09-07T06:52:31;102103.91;;;27.30;42.42
31044;BME280;17710;52.520;13.352;2023-09-07T06:54:58;102101.13;;;27.42;41.91
31044;BME280;17710;52.520;13.352;2023-09-07T06:57:24;102112.25;;;27.38;42.57
31044;BME280;17710;52.520;13.352;2023-09-07T06:59:51;102116.34;;;27.65;42.13
31044;BME280;17710;52.520;13.352;2023-09-07T07:02:18;102115.88;;;27.28;42.81
31044;BME280;17710;52.520;13.352;2023-09-07T07:04:46;102115.41;;;27.55;41.26
31044;BME280;17710;52.520;13.352;2023-09-07T07:07:12;102114.47;;;27.65;41.55
31044;BME280;17710;52.520;13.352;2023-09-07T07:09:39;102119.50;;;27.91;40.93
31044;BME280;17710;52.520;13.352;2023-09-07T07:12:05;102118.84;;;27.98;40.21
31044;BME280;17710;52.520;13.352;2023-09-07T07:14:32;102123.94;;;27.71;40.59
31044;BME280;17710;52.520;13.352;2023-09-07T07:16:59;102123.38;;;27.88;40.74
31044;BME280;17710;52.520;13.352;2023-09-07T07:19:27;102111.50;;;27.89;39.84
31044;BME280;17710;52.520;13.352;2023-09-07T07:21:55;102120.22;;;28.13;40.12
31044;BME280;17710;52.520;13.352;2023-09-07T07:24:22;102118.09;;;27.96;39.60
31044;BME280;17710;52.520;13.352;2023-09-07T07:26:49;102121.09;;;27.72;39.50
31044;BME280;17710;52.520;13.352;2023-09-07T07:29:16;102122.75;;;28.05;39.25
31044;BME280;17710;52.520;13.352;2023-09-07T07:31:42;102119.09;;;28.16;39.17
31044;BME280;17710;52.520;13.352;2023-09-07T07:34:09;102130.94;;;28.36;38.77
31044;BME280;17710;52.520;13.352;2023-09-07T07:36:35;102132.81;;;28.35;38.31
31044;BME280;17710;52.520;13.352;2023-09-07T07:39:04;102131.13;;;28.44;38.53
31044;BME280;17710;52.520;13.352;2023-09-07T07:41:32;102137.09;;;28.68;38.22
31044;BME280;17710;52.520;13.352;2023-09-07T07:43:58;102130.47;;;28.61;38.28
31044;BME280;17710;52.520;13.352;2023-09-07T07:46:25;102135.78;;;29.12;36.65
31044;BME280;17710;52.520;13.352;2023-09-07T07:48:52;102134.50;;;29.07;36.04
31044;BME280;17710;52.520;13.352;2023-09-07T07:51:18;102131.19;;;29.22;36.39
31044;BME280;17710;52.520;13.352;2023-09-07T07:53:47;102136.63;;;29.22;36.60
31044;BME280;17710;52.520;13.352;2023-09-07T07:56:16;102128.09;;;29.46;36.14
31044;BME280;17710;52.520;13.352;2023-09-07T07:58:42;102129.25;;;29.53;35.56
31044;BME280;17710;52.520;13.352;2023-09-07T08:01:13;102126.91;;;29.78;35.62
31044;BME280;17710;52.520;13.352;2023-09-07T08:03:40;102130.03;;;29.83;35.06
31044;BME280;17710;52.520;13.352;2023-09-07T08:06:07;102127.47;;;29.91;34.92
31044;BME280;17710;52.520;13.352;2023-09-07T08:08:33;102124.91;;;29.80;35.22
31044;BME280;17710;52.520;13.352;2023-09-07T08:10:59;102129.22;;;29.63;35.25
31044;BME280;17710;52.520;13.352;2023-09-07T08:13:32;102120.66;;;30.14;34.58
31044;BME280;17710;52.520;13.352;2023-09-07T08:15:59;102125.69;;;30.46;33.68
31044;BME280;17710;52.520;13.352;2023-09-07T08:18:26;102126.81;;;30.26;34.16
31044;BME280;17710;52.520;13.352;2023-09-07T08:20:52;102127.91;;;29.96;34.74
31044;BME280;17710;52.520;13.352;2023-09-07T08:23:20;102127.56;;;30.18;35.10
31044;BME280;17710;52.520;13.352;2023-09-07T08:25:47;102125.38;;;30.22;35.08
31044;BME280;17710;52.520;13.352;2023-09-07T08:28:13;102130.47;;;30.44;34.79
31044;BME280;17710;52.520;13.352;2023-09-07T08:30:42;102126.41;;;30.58;34.17
31044;BME280;17710;52.520;13.352;2023-09-07T08:33:09;102129.44;;;30.55;33.50
31044;BME280;17710;52.520;13.352;2023-09-07T08:35:35;102127.03;;;30.42;34.11
31044;BME280;17710;52.520;13.352;2023-09-07T08:38:09;102124.59;;;30.76;33.43
31044;BME280;17710;52.520;13.352;2023-09-07T08:40:35;102127.19;;;30.77;33.16
31044;BME280;17710;52.520;13.352;2023-09-07T08:43:08;102124.72;;;30.74;32.98
31044;BME280;17710;52.520;13.352;2023-09-07T08:45:41;102117.53;;;30.56;33.44
31044;BME280;17710;52.520;13.352;2023-09-07T08:48:10;102119.22;;;30.84;33.10
31044;BME280;17710;52.520;13.352;2023-09-07T08:50:38;102126.94;;;30.71;32.62
31044;BME280;17710;52.520;13.352;2023-09-07T08:53:11;102126.69;;;30.64;32.76
31044;BME280;17710;52.520;13.352;2023-09-07T08:55:38;102124.94;;;30.26;33.46
31044;BME280;17710;52.520;13.352;2023-09-07T08:58:06;102128.78;;;30.33;33.25
31044;BME280;17710;52.520;13.352;2023-09-07T09:00:32;102123.25;;;30.53;33.22
31044;BME280;17710;52.520;13.352;2023-09-07T09:02:59;102130.63;;;30.52;32.52
31044;BME280;17710;52.520;13.352;2023-09-07T09:05:28;102122.88;;;30.75;32.25
31044;BME280;17710;52.520;13.352;2023-09-07T09:08:01;102128.44;;;31.01;32.41
31044;BME280;17710;52.520;13.352;2023-09-07T09:10:29;102121.59;;;30.97;31.81
31044;BME280;17710;52.520;13.352;2023-09-07T09:12:55;102129.72;;;30.79;31.99
31044;BME280;17710;52.520;13.352;2023-09-07T09:15:21;102121.44;;;30.98;32.45
31044;BME280;17710;52.520;13.352;2023-09-07T09:17:48;102121.34;;;30.90;32.85
31044;BME280;17710;52.520;13.352;2023-09-07T09:20:22;102114.91;;;31.26;31.93
31044;BME280;17710;52.520;13.352;2023-09-07T09:22:52;102118.34;;;31.46;31.67
31044;BME280;17710;52.520;13.352;2023-09-07T09:25:18;102110.94;;;31.39;31.16
31044;BME280;17710;52.520;13.352;2023-09-07T09:27:44;102116.88;;;31.34;31.53
31044;BME280;17710;52.520;13.352;2023-09-07T09:30:11;102116.94;;;31.07;31.08
31044;BME280;17710;52.520;13.352;2023-09-07T09:32:40;102118.28;;;30.75;30.99
31044;BME280;17710;52.520;13.352;2023-09-07T09:35:08;102107.66;;;30.72;31.08
31044;BME280;17710;52.520;13.352;2023-09-07T09:37:34;102110.06;;;30.58;30.39
31044;BME280;17710;52.520;13.352;2023-09-07T09:40:11;102103.53;;;30.68;30.53
31044;BME280;17710;52.520;13.352;2023-09-07T09:42:37;102093.97;;;31.00;30.38
31044;BME280;17710;52.520;13.352;2023-09-07T09:45:05;102096.69;;;31.09;30.07
31044;BME280;17710;52.520;13.352;2023-09-07T09:47:38;102097.31;;;30.94;30.01
31044;BME280;17710;52.520;13.352;2023-09-07T09:50:06;102098.47;;;30.73;30.56
31044;BME280;17710;52.520;13.352;2023-09-07T09:52:33;102093.94;;;30.64;30.81
31044;BME280;17710;52.520;13.352;2023-09-07T09:55:02;102086.31;;;30.85;31.07
31044;BME280;17710;52.520;13.352;2023-09-07T09:57:32;102097.06;;;30.87;29.85
31044;BME280;17710;52.520;13.352;2023-09-07T09:59:59;102083.69;;;30.94;30.23
31044;BME280;17710;52.520;13.352;2023-09-07T10:02:32;102088.84;;;31.32;30.22
31044;BME280;17710;52.520;13.352;2023-09-07T10:05:01;102092.53;;;31.05;30.29
31044;BME280;17710;52.520;13.352;2023-09-07T10:07:41;102091.59;;;31.14;29.46
31044;BME280;17710;52.520;13.352;2023-09-07T10:10:09;102082.78;;;31.20;29.50
31044;BME280;17710;52.520;13.352;2023-09-07T10:12:41;102083.94;;;31.36;29.46
31044;BME280;17710;52.520;13.352;2023-09-07T10:15:20;102084.13;;;31.16;29.64
31044;BME280;17710;52.520;13.352;2023-09-07T10:17:46;102087.75;;;31.25;30.25
31044;BME280;17710;52.520;13.352;2023-09-07T10:20:15;102079.59;;;31.07;29.45
31044;BME280;17710;52.520;13.352;2023-09-07T10:22:41;102080.78;;;30.95;30.01
31044;BME280;17710;52.520;13.352;2023-09-07T10:25:18;102081.22;;;30.73;30.16
31044;BME280;17710;52.520;13.352;2023-09-07T10:27:46;102085.53;;;30.93;29.96
31044;BME280;17710;52.520;13.352;2023-09-07T10:30:13;102082.00;;;31.10;29.78
31044;BME280;17710;52.520;13.352;2023-09-07T10:32:44;102078.31;;;31.19;29.28
31044;BME280;17710;52.520;13.352;2023-09-07T10:35:14;102080.28;;;31.27;29.44
31044;BME280;17710;52.520;13.352;2023-09-07T10:37:44;102081.59;;;31.05;29.42
31044;BME280;17710;52.520;13.352;2023-09-07T10:40:12;102083.22;;;30.98;29.09
31044;BME280;17710;52.520;13.352;2023-09-07T10:42:41;102078.44;;;31.00;29.84
31044;BME280;17710;52.520;13.352;2023-09-07T10:45:13;102071.78;;;31.30;29.56
31044;BME280;17710;52.520;13.352;2023-09-07T10:47:41;102067.84;;;31.50;29.26
31044;BME280;17710;52.520;13.352;2023-09-07T10:50:10;102074.03;;;31.35;29.93
31044;BME280;17710;52.520;13.352;2023-09-07T10:52:37;102067.09;;;31.22;29.25
31044;BME280;17710;52.520;13.352;2023-09-07T10:55:05;102064.69;;;31.19;28.66
31044;BME280;17710;52.520;13.352;2023-09-07T10:57:32;102070.41;;;31.52;29.11
31044;BME280;17710;52.520;13.352;2023-09-07T10:59:58;102063.63;;;31.56;27.93
31044;BME280;17710;52.520;13.352;2023-09-07T11:02:26;102069.09;;;31.56;28.49
31044;BME280;17710;52.520;13.352;2023-09-07T11:04:52;102070.41;;;31.95;28.06
31044;BME280;17710;52.520;13.352;2023-09-07T11:07:19;102075.03;;;31.69;28.55
31044;BME280;17710;52.520;13.352;2023-09-07T11:09:45;102061.91;;;31.55;27.84
31044;BME280;17710;52.520;13.352;2023-09-07T11:12:12;102057.28;;;31.30;28.95
31044;BME280;17710;52.520;13.352;2023-09-07T11:14:41;102055.63;;;31.19;29.15
31044;BME280;17710;52.520;13.352;2023-09-07T11:17:08;102049.56;;;31.07;28.72
31044;BME280;17710;52.520;13.352;2023-09-07T11:19:35;102049.63;;;31.15;29.31
31044;BME280;17710;52.520;13.352;2023-09-07T11:22:03;102044.53;;;31.03;28.43
31044;BME280;17710;52.520;13.352;2023-09-07T11:24:30;102039.56;;;30.98;28.72
31044;BME280;17710;52.520;13.352;2023-09-07T11:26:57;102045.19;;;31.14;28.33
31044;BME280;17710;52.520;13.352;2023-09-07T11:29:24;102040.25;;;31.18;28.17
31044;BME280;17710;52.520;13.352;2023-09-07T11:31:51;102041.59;;;31.14;28.15
31044;BME280;17710;52.520;13.352;2023-09-07T11:34:20;102041.72;;;31.48;28.14
31044;BME280;17710;52.520;13.352;2023-09-07T11:36:48;102035.44;;;31.55;27.85
31044;BME280;17710;52.520;13.352;2023-09-07T11:39:15;102043.31;;;31.58;28.17
31044;BME280;17710;52.520;13.352;2023-09-07T11:41:42;102041.50;;;31.41;27.12
31044;BME280;17710;52.520;13.352;2023-09-07T11:44:08;102034.34;;;31.66;26.65
31044;BME280;17710;52.520;13.352;2023-09-07T11:46:34;102033.47;;;31.91;27.25
31044;BME280;17710;52.520;13.352;2023-09-07T11:49:01;102036.25;;;31.99;26.99
31044;BME280;17710;52.520;13.352;2023-09-07T11:51:28;102030.22;;;31.88;26.21
31044;BME280;17710;52.520;13.352;2023-09-07T11:53:56;102031.59;;;31.92;26.03
31044;BME280;17710;52.520;13.352;2023-09-07T11:56:22;102031.97;;;31.71;26.51
31044;BME280;17710;52.520;13.352;2023-09-07T11:58:49;102037.78;;;31.94;26.92
31044;BME280;17710;52.520;13.352;2023-09-07T12:01:15;102031.69;;;31.74;26.57
31044;BME280;17710;52.520;13.352;2023-09-07T12:03:42;102032.75;;;31.81;26.80
31044;BME280;17710;52.520;13.352;2023-09-07T12:06:09;102029.22;;;31.63;27.25
31044;BME280;17710;52.520;13.352;2023-09-07T12:08:36;102022.81;;;31.80;27.06
31044;BME280;17710;52.520;13.352;2023-09-07T12:11:04;102025.13;;;31.93;27.15
31044;BME280;17710;52.520;13.352;2023-09-07T12:13:30;102025.97;;;31.93;26.83
31044;BME280;17710;52.520;13.352;2023-09-07T12:15:56;102028.81;;;31.84;26.44
31044;BME280;17710;52.520;13.352;2023-09-07T12:18:23;102016.50;;;31.80;26.02
31044;BME280;17710;52.520;13.352;2023-09-07T12:20:50;102017.16;;;31.74;26.58
31044;BME280;17710;52.520;13.352;2023-09-07T12:23:16;102025.22;;;32.09;26.65
31044;BME280;17710;52.520;13.352;2023-09-07T12:25:42;102028.06;;;31.99;26.39
31044;BME280;17710;52.520;13.352;2023-09-07T12:28:10;102022.44;;;32.01;25.63
31044;BME280;17710;52.520;13.352;2023-09-07T12:30:36;102032.78;;;32.15;26.24
31044;BME280;17710;52.520;13.352;2023-09-07T12:33:03;102027.19;;;31.99;26.50
31044;BME280;17710;52.520;13.352;2023-09-07T12:35:29;102026.13;;;32.18;26.25
31044;BME280;17710;52.520;13.352;2023-09-07T12:37:56;102021.03;;;32.31;26.24
31044;BME280;17710;52.520;13.352;2023-09-07T12:40:22;102029.03;;;32.24;26.46